sensor_id;sensor_type;location;lat;lon;timestamp;temperature;humidity
23305;DHT22;11821;51.456;8.844;2022-10-17T00:00:45;16.50;99.90
23305;DHT22;11821;51.456;8.844;2022-10-17T00:03:12;16.20;99.90
23305;DHT22;11821;51.456;8.844;2022-10-17T00:05:43;16.10;99.90
23305;DHT22;11821;51.456;8.844;2022-10-17T00:08:11;16.20;99.90
23305;DHT22;11821;51.456;8.844;2022-10-17T00:10:38;16.40;99.90
23305;DHT22;11821;51.456;8.844;2022-10-17T00:13:05;16.40;99.90
23305;DHT22;11821;51.456;8.844;2022-10-17T00:15:32;16.30;99.90
23305;DHT22;11821;51.456;8.844;2022-10-17T00:17:59;16.30;99.90
23305;DHT22;11821;51.456;8.844;2022-10-17T00:20:26;16.30;99.90
23305;DHT22;11821;51.456;8.844;2022-10-17T00:22:52;16.30;99.90
23305;DHT22;11821;51.456;8.844;2022-10-17T00:25:19;16.20;99.90
23305;DHT22;11821;51.456;8.844;2022-10-17T00:27:45;16.10;99.90
23305;DHT22;11821;51.456;8.844;2022-10-17T00:30:15;16.20;99.90
23305;DHT22;11821;51.456;8.844;2022-10-17T00:32:42;16.20;99.90
23305;DHT22;11821;51.456;8.844;2022-10-17T00:35:08;16.20;99.90
23305;DHT22;11821;51.456;8.844;2022-10-17T00:37:35;16.10;99.90
23305;DHT22;11821;51.456;8.844;2022-10-17T00:40:02;16.20;99.90
23305;DHT22;11821;51.456;8.844;2022-10-17T00:42:28;16.10;99.90
23305;DHT22;11821;51.456;8.844;2022-10-17T00:47:28;16.00;99.90
23305;DHT22;11821;51.456;8.844;2022-10-17T00:49:54;16.00;99.90
23305;DHT22;11821;51.456;8.844;2022-10-17T00:52:24;16.00;99.90
23305;DHT22;11821;51.456;8.844;2022-10-17T00:54:58;16.00;99.90
23305;DHT22;11821;51.456;8.844;2022-10-17T00:57:27;15.90;99.90
23305;DHT22;11821;51.456;8.844;2022-10-17T00:59:55;15.90;99.90
23305;DHT22;11821;51.456;8.844;2022-10-17T01:02:22;15.90;99.90
23305;DHT22;11821;51.456;8.844;2022-10-17T01:04:51;15.80;99.90
23305;DHT22;11821;51.456;8.844;2022-10-17T01:07:20;15.70;99.90
23305;DHT22;11821;51.456;8.844;2022-10-17T01:09:46;15.70;99.90
23305;DHT22;11821;51.456;8.844;2022-10-17T01:12:18;15.70;99.90
23305;DHT22;11821;51.456;8.844;2022-10-17T01:30:58;15.60;99.90
23305;DHT22;11821;51.456;8.844;2022-10-17T01:39:43;15.30;99.90
23305;DHT22;11821;51.456;8.844;2022-10-17T01:42:54;15.40;99.90
23305;DHT22;11821;51.456;8.844;2022-10-17T01:45:39;15.40;99.90
23305;DHT22;11821;51.456;8.844;2022-10-17T01:48:19;15.30;99.90
23305;DHT22;11821;51.456;8.844;2022-10-17T01:50:54;15.30;99.90
23305;DHT22;11821;51.456;8.844;2022-10-17T01:53:32;15.30;99.90
23305;DHT22;11821;51.456;8.844;2022-10-17T01:56:01;15.30;99.90
23305;DHT22;11821;51.456;8.844;2022-10-17T01:58:33;15.20;99.90
23305;DHT22;11821;51.456;8.844;2022-10-17T02:01:04;15.20;99.90
23305;DHT22;11821;51.456;8.844;2022-10-17T02:03:33;15.10;99.90
23305;DHT22;11821;51.456;8.844;2022-10-17T02:06:00;15.20;99.90
23305;DHT22;11821;51.456;8.844;2022-10-17T02:08:39;15.10;99.90
23305;DHT22;11821;51.456;8.844;2022-10-17T02:11:17;15.10;99.90
23305;DHT22;11821;51.456;8.844;2022-10-17T02:17:11;15.10;99.90
23305;DHT22;11821;51.456;8.844;2022-10-17T02:28:08;15.00;99.90
23305;DHT22;11821;51.456;8.844;2022-10-17T02:30:54;15.00;99.90
23305;DHT22;11821;51.456;8.844;2022-10-17T02:36:24;15.00;99.90
23305;DHT22;11821;51.456;8.844;2022-10-17T02:38:53;15.00;99.90
23305;DHT22;11821;51.456;8.844;2022-10-17T02:41:21;14.90;99.90
23305;DHT22;11821;51.456;8.844;2022-10-17T02:43:52;14.90;99.90
23305;DHT22;11821;51.456;8.844;2022-10-17T02:46:21;14.90;99.90
23305;DHT22;11821;51.456;8.844;2022-10-17T02:49:01;14.90;99.90
23305;DHT22;11821;51.456;8.844;2022-10-17T02:54:47;14.80;99.90
23305;DHT22;11821;51.456;8.844;2022-10-17T02:57:40;14.80;99.90
23305;DHT22;11821;51.456;8.844;2022-10-17T03:00:07;14.90;99.90
23305;DHT22;11821;51.456;8.844;2022-10-17T03:02:47;14.90;99.90
23305;DHT22;11821;51.456;8.844;2022-10-17T03:05:17;14.90;99.90
23305;DHT22;11821;51.456;8.844;2022-10-17T03:07:44;14.90;99.90
23305;DHT22;11821;51.456;8.844;2022-10-17T03:10:11;14.80;99.90
23305;DHT22;11821;51.456;8.844;2022-10-17T03:12:37;14.80;99.90
23305;DHT22;11821;51.456;8.844;2022-10-17T03:15:04;14.70;99.90
23305;DHT22;11821;51.456;8.844;2022-10-17T03:17:31;14.70;99.90
23305;DHT22;11821;51.456;8.844;2022-10-17T03:19:58;14.70;99.90
23305;DHT22;11821;51.456;8.844;2022-10-17T03:22:24;14.70;99.90
23305;DHT22;11821;51.456;8.844;2022-10-17T03:24:51;14.70;99.90
23305;DHT22;11821;51.456;8.844;2022-10-17T03:27:17;14.70;99.90
23305;DHT22;11821;51.456;8.844;2022-10-17T03:29:45;14.70;99.90
23305;DHT22;11821;51.456;8.844;2022-10-17T03:32:13;14.60;99.90
23305;DHT22;11821;51.456;8.844;2022-10-17T03:34:40;14.70;99.90
23305;DHT22;11821;51.456;8.844;2022-10-17T03:37:06;14.70;99.90
23305;DHT22;11821;51.456;8.844;2022-10-17T03:39:35;14.60;99.90
23305;DHT22;11821;51.456;8.844;2022-10-17T03:42:01;14.60;99.90
23305;DHT22;11821;51.456;8.844;2022-10-17T03:44:28;14.60;99.90
23305;DHT22;11821;51.456;8.844;2022-10-17T03:46:55;14.60;99.90
23305;DHT22;11821;51.456;8.844;2022-10-17T03:49:21;14.60;99.90
23305;DHT22;11821;51.456;8.844;2022-10-17T03:51:48;14.60;99.90
23305;DHT22;11821;51.456;8.844;2022-10-17T03:54:16;14.50;99.90
23305;DHT22;11821;51.456;8.844;2022-10-17T03:56:43;14.50;99.90
23305;DHT22;11821;51.456;8.844;2022-10-17T03:59:14;14.40;99.90
23305;DHT22;11821;51.456;8.844;2022-10-17T04:01:43;14.40;99.90
23305;DHT22;11821;51.456;8.844;2022-10-17T04:04:10;14.40;99.90
23305;DHT22;11821;51.456;8.844;2022-10-17T04:06:37;14.40;99.90
23305;DHT22;11821;51.456;8.844;2022-10-17T04:09:04;14.40;99.90
23305;DHT22;11821;51.456;8.844;2022-10-17T04:11:45;14.40;99.90
23305;DHT22;11821;51.456;8.844;2022-10-17T04:14:12;14.40;99.90
23305;DHT22;11821;51.456;8.844;2022-10-17T04:16:40;14.30;99.90
23305;DHT22;11821;51.456;8.844;2022-10-17T04:19:14;14.20;99.90
23305;DHT22;11821;51.456;8.844;2022-10-17T04:21:44;14.20;99.90
23305;DHT22;11821;51.456;8.844;2022-10-17T04:24:11;14.10;99.90
23305;DHT22;11821;51.456;8.844;2022-10-17T04:26:46;14.20;99.90
23305;DHT22;11821;51.456;8.844;2022-10-17T04:29:14;14.20;99.90
23305;DHT22;11821;51.456;8.844;2022-10-17T04:31:42;14.10;99.90
23305;DHT22;11821;51.456;8.844;2022-10-17T04:34:16;14.30;99.90
23305;DHT22;11821;51.456;8.844;2022-10-17T04:36:42;14.20;99.90
23305;DHT22;11821;51.456;8.844;2022-10-17T04:39:09;14.30;99.90
23305;DHT22;11821;51.456;8.844;2022-10-17T04:41:35;14.30;99.90
23305;DHT22;11821;51.456;8.844;2022-10-17T04:44:02;14.40;99.90
23305;DHT22;11821;51.456;8.844;2022-10-17T04:46:33;14.40;99.90
23305;DHT22;11821;51.456;8.844;2022-10-17T04:49:00;14.40;99.90
23305;DHT22;11821;51.456;8.844;2022-10-17T04:51:27;14.40;99.90
23305;DHT22;11821;51.456;8.844;2022-10-17T04:54:22;14.40;99.90
23305;DHT22;11821;51.456;8.844;2022-10-17T04:56:56;14.40;99.90
23305;DHT22;11821;51.456;8.844;2022-10-17T04:59:22;14.40;99.90
23305;DHT22;11821;51.456;8.844;2022-10-17T05:01:56;14.40;99.90
23305;DHT22;11821;51.456;8.844;2022-10-17T05:04:23;14.50;99.90
23305;DHT22;11821;51.456;8.844;2022-10-17T05:06:50;14.50;99.90
23305;DHT22;11821;51.456;8.844;2022-10-17T05:09:34;14.40;99.90
23305;DHT22;11821;51.456;8.844;2022-10-17T05:12:01;14.50;99.90
23305;DHT22;11821;51.456;8.844;2022-10-17T05:14:29;14.50;99.90
23305;DHT22;11821;51.456;8.844;2022-10-17T05:16:56;14.50;99.90
23305;DHT22;11821;51.456;8.844;2022-10-17T05:19:23;14.50;99.90
23305;DHT22;11821;51.456;8.844;2022-10-17T05:21:50;14.60;99.90
23305;DHT22;11821;51.456;8.844;2022-10-17T05:24:17;14.50;99.90
23305;DHT22;11821;51.456;8.844;2022-10-17T05:26:43;14.60;99.90
23305;DHT22;11821;51.456;8.844;2022-10-17T05:29:10;14.50;99.90
23305;DHT22;11821;51.456;8.844;2022-10-17T05:31:40;14.50;99.90
23305;DHT22;11821;51.456;8.844;2022-10-17T05:34:07;14.50;99.90
23305;DHT22;11821;51.456;8.844;2022-10-17T05:36:34;14.50;99.90
23305;DHT22;11821;51.456;8.844;2022-10-17T05:39:03;14.50;99.90
23305;DHT22;11821;51.456;8.844;2022-10-17T05:41:32;14.40;99.90
23305;DHT22;11821;51.456;8.844;2022-10-17T05:43:58;14.40;99.90
23305;DHT22;11821;51.456;8.844;2022-10-17T05:46:36;14.40;99.90
23305;DHT22;11821;51.456;8.844;2022-10-17T05:49:03;14.50;99.90
23305;DHT22;11821;51.456;8.844;2022-10-17T05:51:32;14.50;99.90
23305;DHT22;11821;51.456;8.844;2022-10-17T05:54:00;14.50;99.90
23305;DHT22;11821;51.456;8.844;2022-10-17T05:56:28;14.40;99.90
23305;DHT22;11821;51.456;8.844;2022-10-17T05:58:54;14.40;99.90
23305;DHT22;11821;51.456;8.844;2022-10-17T06:01:29;14.50;99.90
23305;DHT22;11821;51.456;8.844;2022-10-17T06:03:55;14.40;99.90
23305;DHT22;11821;51.456;8.844;2022-10-17T06:06:21;14.30;99.90
23305;DHT22;11821;51.456;8.844;2022-10-17T06:08:48;14.30;99.90
23305;DHT22;11821;51.456;8.844;2022-10-17T06:11:19;14.40;99.90
23305;DHT22;11821;51.456;8.844;2022-10-17T06:13:46;14.50;99.90
23305;DHT22;11821;51.456;8.844;2022-10-17T06:16:20;14.40;99.90
23305;DHT22;11821;51.456;8.844;2022-10-17T06:18:46;14.50;99.90
23305;DHT22;11821;51.456;8.844;2022-10-17T06:21:16;14.50;99.90
23305;DHT22;11821;51.456;8.844;2022-10-17T06:23:47;14.50;99.90
23305;DHT22;11821;51.456;8.844;2022-10-17T06:26:19;14.60;99.90
23305;DHT22;11821;51.456;8.844;2022-10-17T06:28:45;14.60;99.90
23305;DHT22;11821;51.456;8.844;2022-10-17T06:31:15;14.60;99.90
23305;DHT22;11821;51.456;8.844;2022-10-17T06:33:41;14.70;99.90
23305;DHT22;11821;51.456;8.844;2022-10-17T06:36:12;14.80;99.90
23305;DHT22;11821;51.456;8.844;2022-10-17T06:38:39;14.80;99.90
23305;DHT22;11821;51.456;8.844;2022-10-17T06:41:13;14.90;99.90
23305;DHT22;11821;51.456;8.844;2022-10-17T06:43:41;15.00;99.90
23305;DHT22;11821;51.456;8.844;2022-10-17T06:46:43;15.00;99.90
23305;DHT22;11821;51.456;8.844;2022-10-17T06:49:09;15.00;99.90
23305;DHT22;11821;51.456;8.844;2022-10-17T06:51:47;15.00;99.90
23305;DHT22;11821;51.456;8.844;2022-10-17T06:54:15;15.00;99.90
23305;DHT22;11821;51.456;8.844;2022-10-17T06:57:20;15.10;99.90
23305;DHT22;11821;51.456;8.844;2022-10-17T07:00:07;15.20;99.90
23305;DHT22;11821;51.456;8.844;2022-10-17T07:02:42;15.30;99.90
23305;DHT22;11821;51.456;8.844;2022-10-17T07:05:09;15.30;99.90
23305;DHT22;11821;51.456;8.844;2022-10-17T07:07:35;15.30;99.90
23305;DHT22;11821;51.456;8.844;2022-10-17T07:10:04;15.30;99.90
23305;DHT22;11821;51.456;8.844;2022-10-17T07:12:34;15.50;99.90
23305;DHT22;11821;51.456;8.844;2022-10-17T07:15:01;15.60;99.90
23305;DHT22;11821;51.456;8.844;2022-10-17T07:17:30;15.60;99.90
23305;DHT22;11821;51.456;8.844;2022-10-17T07:19:56;15.70;99.90
23305;DHT22;11821;51.456;8.844;2022-10-17T07:22:24;15.70;99.90
23305;DHT22;11821;51.456;8.844;2022-10-17T07:24:55;15.80;99.90
23305;DHT22;11821;51.456;8.844;2022-10-17T07:27:45;15.90;99.90
23305;DHT22;11821;51.456;8.844;2022-10-17T07:30:11;16.00;99.90
23305;DHT22;11821;51.456;8.844;2022-10-17T07:32:41;16.10;99.90
23305;DHT22;11821;51.456;8.844;2022-10-17T07:35:09;16.10;99.90
23305;DHT22;11821;51.456;8.844;2022-10-17T07:37:36;16.20;99.90
23305;DHT22;11821;51.456;8.844;2022-10-17T07:40:04;16.30;99.90
23305;DHT22;11821;51.456;8.844;2022-10-17T07:42:33;16.30;99.90
23305;DHT22;11821;51.456;8.844;2022-10-17T07:45:01;16.40;99.90
23305;DHT22;11821;51.456;8.844;2022-10-17T07:47:30;16.50;99.90
23305;DHT22;11821;51.456;8.844;2022-10-17T07:50:01;16.60;99.90
23305;DHT22;11821;51.456;8.844;2022-10-17T07:52:28;16.70;99.90
23305;DHT22;11821;51.456;8.844;2022-10-17T07:54:54;16.70;99.90
23305;DHT22;11821;51.456;8.844;2022-10-17T07:57:20;16.70;99.90
23305;DHT22;11821;51.456;8.844;2022-10-17T07:59:46;16.80;99.90
23305;DHT22;11821;51.456;8.844;2022-10-17T08:02:20;17.00;99.90
23305;DHT22;11821;51.456;8.844;2022-10-17T08:04:47;17.20;99.90
23305;DHT22;11821;51.456;8.844;2022-10-17T08:07:14;17.40;99.90
23305;DHT22;11821;51.456;8.844;2022-10-17T08:09:42;17.50;99.90
23305;DHT22;11821;51.456;8.844;2022-10-17T08:12:09;17.70;99.90
23305;DHT22;11821;51.456;8.844;2022-10-17T08:14:35;17.80;99.90
23305;DHT22;11821;51.456;8.844;2022-10-17T08:17:02;18.00;99.90
23305;DHT22;11821;51.456;8.844;2022-10-17T08:19:28;18.10;99.90
23305;DHT22;11821;51.456;8.844;2022-10-17T08:21:55;18.30;99.90
23305;DHT22;11821;51.456;8.844;2022-10-17T08:24:22;18.40;99.90
23305;DHT22;11821;51.456;8.844;2022-10-17T08:26:48;18.50;99.90
23305;DHT22;11821;51.456;8.844;2022-10-17T08:29:15;18.70;99.90
23305;DHT22;11821;51.456;8.844;2022-10-17T08:31:42;18.90;99.90
23305;DHT22;11821;51.456;8.844;2022-10-17T08:34:08;19.10;99.90
23305;DHT22;11821;51.456;8.844;2022-10-17T08:36:34;19.40;99.90
23305;DHT22;11821;51.456;8.844;2022-10-17T08:39:00;19.60;99.90
23305;DHT22;11821;51.456;8.844;2022-10-17T08:41:40;19.80;99.90
23305;DHT22;11821;51.456;8.844;2022-10-17T08:44:26;20.00;99.90
23305;DHT22;11821;51.456;8.844;2022-10-17T08:46:57;20.20;99.90
23305;DHT22;11821;51.456;8.844;2022-10-17T08:52:06;20.30;99.90
23305;DHT22;11821;51.456;8.844;2022-10-17T08:54:44;20.30;99.90
23305;DHT22;11821;51.456;8.844;2022-10-17T08:57:14;20.30;99.90
23305;DHT22;11821;51.456;8.844;2022-10-17T08:59:44;20.30;99.90
23305;DHT22;11821;51.456;8.844;2022-10-17T09:19:31;21.10;99.90
23305;DHT22;11821;51.456;8.844;2022-10-17T09:22:09;21.10;99.90
23305;DHT22;11821;51.456;8.844;2022-10-17T09:24:40;21.10;99.90
23305;DHT22;11821;51.456;8.844;2022-10-17T09:29:50;21.40;99.90
23305;DHT22;11821;51.456;8.844;2022-10-17T09:32:22;21.50;99.90
23305;DHT22;11821;51.456;8.844;2022-10-17T09:34:48;21.60;99.90
23305;DHT22;11821;51.456;8.844;2022-10-17T09:37:16;21.80;99.90
23305;DHT22;11821;51.456;8.844;2022-10-17T09:39:43;21.90;99.90
23305;DHT22;11821;51.456;8.844;2022-10-17T09:42:13;22.00;99.90
23305;DHT22;11821;51.456;8.844;2022-10-17T09:44:54;22.20;99.90
23305;DHT22;11821;51.456;8.844;2022-10-17T09:47:28;22.30;99.90
23305;DHT22;11821;51.456;8.844;2022-10-17T09:49:56;22.40;99.90
23305;DHT22;11821;51.456;8.844;2022-10-17T09:52:34;22.70;99.90
23305;DHT22;11821;51.456;8.844;2022-10-17T09:55:04;22.90;99.90
23305;DHT22;11821;51.456;8.844;2022-10-17T09:58:08;23.00;99.90
23305;DHT22;11821;51.456;8.844;2022-10-17T10:00:45;23.10;99.90
23305;DHT22;11821;51.456;8.844;2022-10-17T10:03:18;23.00;99.90
23305;DHT22;11821;51.456;8.844;2022-10-17T10:08:35;23.20;99.90
23305;DHT22;11821;51.456;8.844;2022-10-17T10:11:06;23.40;99.90
23305;DHT22;11821;51.456;8.844;2022-10-17T10:13:34;23.60;99.90
23305;DHT22;11821;51.456;8.844;2022-10-17T10:16:28;23.60;99.90
23305;DHT22;11821;51.456;8.844;2022-10-17T10:18:55;23.60;99.90
23305;DHT22;11821;51.456;8.844;2022-10-17T10:21:23;23.70;99.90
23305;DHT22;11821;51.456;8.844;2022-10-17T10:26:39;23.70;99.90
23305;DHT22;11821;51.456;8.844;2022-10-17T10:31:51;23.60;99.90
23305;DHT22;11821;51.456;8.844;2022-10-17T10:37:02;23.50;99.90
23305;DHT22;11821;51.456;8.844;2022-10-17T10:42:05;23.90;99.90
23305;DHT22;11821;51.456;8.844;2022-10-17T10:44:32;24.10;99.90
23305;DHT22;11821;51.456;8.844;2022-10-17T10:47:17;24.20;99.90
23305;DHT22;11821;51.456;8.844;2022-10-17T10:49:44;24.40;99.90
23305;DHT22;11821;51.456;8.844;2022-10-17T10:52:29;24.60;99.90
23305;DHT22;11821;51.456;8.844;2022-10-17T10:55:04;24.80;99.90
23305;DHT22;11821;51.456;8.844;2022-10-17T10:57:36;25.10;99.90
23305;DHT22;11821;51.456;8.844;2022-10-17T11:00:16;25.20;99.90
23305;DHT22;11821;51.456;8.844;2022-10-17T11:03:08;25.40;99.90
23305;DHT22;11821;51.456;8.844;2022-10-17T11:05:51;25.50;99.90
23305;DHT22;11821;51.456;8.844;2022-10-17T11:08:40;25.60;99.90
23305;DHT22;11821;51.456;8.844;2022-10-17T11:11:24;25.60;99.90
23305;DHT22;11821;51.456;8.844;2022-10-17T11:14:33;25.50;99.90
23305;DHT22;11821;51.456;8.844;2022-10-17T11:19:58;25.80;99.90
23305;DHT22;11821;51.456;8.844;2022-10-17T11:22:31;25.90;99.90
23305;DHT22;11821;51.456;8.844;2022-10-17T11:27:37;26.10;99.90
23305;DHT22;11821;51.456;8.844;2022-10-17T11:30:04;26.30;99.90
23305;DHT22;11821;51.456;8.844;2022-10-17T11:37:45;26.70;99.90
23305;DHT22;11821;51.456;8.844;2022-10-17T11:40:24;26.70;99.90
23305;DHT22;11821;51.456;8.844;2022-10-17T11:42:59;26.70;99.90
23305;DHT22;11821;51.456;8.844;2022-10-17T11:45:28;26.70;99.90
23305;DHT22;11821;51.456;8.844;2022-10-17T11:48:09;26.70;99.90
23305;DHT22;11821;51.456;8.844;2022-10-17T11:50:41;26.90;99.90
23305;DHT22;11821;51.456;8.844;2022-10-17T11:53:15;26.90;99.90
23305;DHT22;11821;51.456;8.844;2022-10-17T11:55:42;26.90;99.90
23305;DHT22;11821;51.456;8.844;2022-10-17T11:58:18;26.80;99.90
23305;DHT22;11821;51.456;8.844;2022-10-17T12:03:48;26.50;99.90
23305;DHT22;11821;51.456;8.844;2022-10-17T12:09:19;26.60;99.90
23305;DHT22;11821;51.456;8.844;2022-10-17T12:11:58;26.70;99.90
23305;DHT22;11821;51.456;8.844;2022-10-17T12:14:46;26.70;99.90
23305;DHT22;11821;51.456;8.844;2022-10-17T12:17:28;26.70;99.90
23305;DHT22;11821;51.456;8.844;2022-10-17T12:22:46;26.30;99.90
23305;DHT22;11821;51.456;8.844;2022-10-17T12:25:31;26.50;99.90
23305;DHT22;11821;51.456;8.844;2022-10-17T12:30:57;26.40;99.90
23305;DHT22;11821;51.456;8.844;2022-10-17T12:38:44;27.10;99.90
23305;DHT22;11821;51.456;8.844;2022-10-17T12:41:11;27.30;99.90
23305;DHT22;11821;51.456;8.844;2022-10-17T12:43:51;27.40;99.90
23305;DHT22;11821;51.456;8.844;2022-10-17T12:54:55;27.00;99.90
23305;DHT22;11821;51.456;8.844;2022-10-17T13:00:54;26.90;99.90
23305;DHT22;11821;51.456;8.844;2022-10-17T13:03:11;26.80;99.90
23305;DHT22;11821;51.456;8.844;2022-10-17T13:05:40;26.80;99.90
23305;DHT22;11821;51.456;8.844;2022-10-17T13:08:51;26.80;99.90
23305;DHT22;11821;51.456;8.844;2022-10-17T13:11:08;26.70;99.90
23305;DHT22;11821;51.456;8.844;2022-10-17T13:13:56;26.50;99.90
23305;DHT22;11821;51.456;8.844;2022-10-17T13:16:32;26.60;99.90
23305;DHT22;11821;51.456;8.844;2022-10-17T13:19:01;26.50;99.90
23305;DHT22;11821;51.456;8.844;2022-10-17T13:21:27;26.50;99.90
23305;DHT22;11821;51.456;8.844;2022-10-17T13:23:54;26.60;99.90
23305;DHT22;11821;51.456;8.844;2022-10-17T13:26:26;26.50;99.90
23305;DHT22;11821;51.456;8.844;2022-10-17T13:29:13;26.30;99.90
23305;DHT22;11821;51.456;8.844;2022-10-17T13:31:42;26.10;99.90
23305;DHT22;11821;51.456;8.844;2022-10-17T13:34:24;26.00;99.90
23305;DHT22;11821;51.456;8.844;2022-10-17T13:37:02;26.00;99.90
23305;DHT22;11821;51.456;8.844;2022-10-17T13:39:43;26.00;99.90
23305;DHT22;11821;51.456;8.844;2022-10-17T13:42:25;26.10;99.90
23305;DHT22;11821;51.456;8.844;2022-10-17T13:44:53;26.10;99.90
23305;DHT22;11821;51.456;8.844;2022-10-17T13:47:26;26.10;99.90
23305;DHT22;11821;51.456;8.844;2022-10-17T13:49:53;25.90;99.90
23305;DHT22;11821;51.456;8.844;2022-10-17T13:52:24;25.90;99.90
23305;DHT22;11821;51.456;8.844;2022-10-17T13:54:51;25.80;99.90
23305;DHT22;11821;51.456;8.844;2022-10-17T13:57:26;25.90;99.90
23305;DHT22;11821;51.456;8.844;2022-10-17T13:59:58;25.80;99.90
23305;DHT22;11821;51.456;8.844;2022-10-17T14:02:27;26.00;99.90
23305;DHT22;11821;51.456;8.844;2022-10-17T14:05:12;26.00;99.90
23305;DHT22;11821;51.456;8.844;2022-10-17T14:12:51;26.00;99.90
23305;DHT22;11821;51.456;8.844;2022-10-17T14:15:27;26.00;99.90
23305;DHT22;11821;51.456;8.844;2022-10-17T14:18:00;25.90;99.90
23305;DHT22;11821;51.456;8.844;2022-10-17T14:20:27;25.90;99.90
23305;DHT22;11821;51.456;8.844;2022-10-17T14:22:56;25.80;99.90
23305;DHT22;11821;51.456;8.844;2022-10-17T14:25:40;25.80;99.90
23305;DHT22;11821;51.456;8.844;2022-10-17T14:30:45;25.70;99.90
23305;DHT22;11821;51.456;8.844;2022-10-17T14:33:14;25.70;99.90
23305;DHT22;11821;51.456;8.844;2022-10-17T14:35:53;25.70;99.90
23305;DHT22;11821;51.456;8.844;2022-10-17T14:38:21;25.70;99.90
23305;DHT22;11821;51.456;8.844;2022-10-17T14:40:52;25.70;99.90
23305;DHT22;11821;51.456;8.844;2022-10-17T14:43:22;25.60;99.90
23305;DHT22;11821;51.456;8.844;2022-10-17T14:45:49;25.60;99.90
23305;DHT22;11821;51.456;8.844;2022-10-17T14:48:19;25.40;99.90
23305;DHT22;11821;51.456;8.844;2022-10-17T14:51:11;25.30;99.90
23305;DHT22;11821;51.456;8.844;2022-10-17T14:53:40;25.20;99.90
23305;DHT22;11821;51.456;8.844;2022-10-17T14:56:48;25.10;99.90
23305;DHT22;11821;51.456;8.844;2022-10-17T14:59:14;25.20;99.90
23305;DHT22;11821;51.456;8.844;2022-10-17T15:01:42;25.20;99.90
23305;DHT22;11821;51.456;8.844;2022-10-17T15:04:09;25.10;99.90
23305;DHT22;11821;51.456;8.844;2022-10-17T15:06:35;25.10;99.90
23305;DHT22;11821;51.456;8.844;2022-10-17T15:09:02;25.10;99.90
23305;DHT22;11821;51.456;8.844;2022-10-17T15:11:29;25.00;99.90
23305;DHT22;11821;51.456;8.844;2022-10-17T15:13:55;25.00;99.90
23305;DHT22;11821;51.456;8.844;2022-10-17T15:16:29;24.90;99.90
23305;DHT22;11821;51.456;8.844;2022-10-17T15:18:55;24.90;99.90
23305;DHT22;11821;51.456;8.844;2022-10-17T15:21:23;24.80;99.90
23305;DHT22;11821;51.456;8.844;2022-10-17T15:23:50;24.70;99.90
23305;DHT22;11821;51.456;8.844;2022-10-17T15:26:24;24.70;99.90
23305;DHT22;11821;51.456;8.844;2022-10-17T15:28:51;24.50;99.90
23305;DHT22;11821;51.456;8.844;2022-10-17T15:31:21;24.50;99.90
23305;DHT22;11821;51.456;8.844;2022-10-17T15:33:48;24.40;99.90
23305;DHT22;11821;51.456;8.844;2022-10-17T15:38:49;24.50;99.90
23305;DHT22;11821;51.456;8.844;2022-10-17T15:41:17;24.50;99.90
23305;DHT22;11821;51.456;8.844;2022-10-17T15:43:43;24.50;99.90
23305;DHT22;11821;51.456;8.844;2022-10-17T15:46:16;24.40;99.90
23305;DHT22;11821;51.456;8.844;2022-10-17T15:48:43;24.40;99.90
23305;DHT22;11821;51.456;8.844;2022-10-17T15:51:10;24.50;99.90
23305;DHT22;11821;51.456;8.844;2022-10-17T15:53:36;24.50;99.90
23305;DHT22;11821;51.456;8.844;2022-10-17T15:56:03;24.60;99.90
23305;DHT22;11821;51.456;8.844;2022-10-17T15:58:34;24.50;99.90
23305;DHT22;11821;51.456;8.844;2022-10-17T16:01:02;24.60;99.90
23305;DHT22;11821;51.456;8.844;2022-10-17T16:03:29;24.60;99.90
23305;DHT22;11821;51.456;8.844;2022-10-17T16:05:55;24.50;99.90
23305;DHT22;11821;51.456;8.844;2022-10-17T16:08:22;24.40;99.90
23305;DHT22;11821;51.456;8.844;2022-10-17T16:10:48;24.40;99.90
23305;DHT22;11821;51.456;8.844;2022-10-17T16:13:21;24.30;99.90
23305;DHT22;11821;51.456;8.844;2022-10-17T16:15:47;24.20;99.90
23305;DHT22;11821;51.456;8.844;2022-10-17T16:18:14;24.10;99.90
23305;DHT22;11821;51.456;8.844;2022-10-17T16:20:40;24.10;99.90
23305;DHT22;11821;51.456;8.844;2022-10-17T16:23:07;24.10;99.90
23305;DHT22;11821;51.456;8.844;2022-10-17T16:25:34;24.10;99.90
23305;DHT22;11821;51.456;8.844;2022-10-17T16:28:00;23.90;99.90
23305;DHT22;11821;51.456;8.844;2022-10-17T16:30:29;23.80;99.90
23305;DHT22;11821;51.456;8.844;2022-10-17T16:32:55;23.80;99.90
23305;DHT22;11821;51.456;8.844;2022-10-17T16:35:28;23.80;99.90
23305;DHT22;11821;51.456;8.844;2022-10-17T16:37:54;23.80;99.90
23305;DHT22;11821;51.456;8.844;2022-10-17T16:40:22;23.80;99.90
23305;DHT22;11821;51.456;8.844;2022-10-17T16:42:48;23.70;99.90
23305;DHT22;11821;51.456;8.844;2022-10-17T16:45:17;23.70;99.90
23305;DHT22;11821;51.456;8.844;2022-10-17T16:47:44;23.70;99.90
23305;DHT22;11821;51.456;8.844;2022-10-17T16:50:12;23.70;99.90
23305;DHT22;11821;51.456;8.844;2022-10-17T16:52:39;23.70;99.90
23305;DHT22;11821;51.456;8.844;2022-10-17T16:55:05;23.60;99.90
23305;DHT22;11821;51.456;8.844;2022-10-17T16:57:32;23.60;99.90
23305;DHT22;11821;51.456;8.844;2022-10-17T16:59:58;23.50;99.90
23305;DHT22;11821;51.456;8.844;2022-10-17T17:02:25;23.40;99.90
23305;DHT22;11821;51.456;8.844;2022-10-17T17:04:51;23.40;99.90
23305;DHT22;11821;51.456;8.844;2022-10-17T17:07:17;23.30;99.90
23305;DHT22;11821;51.456;8.844;2022-10-17T17:09:44;23.30;99.90
23305;DHT22;11821;51.456;8.844;2022-10-17T17:12:11;23.20;99.90
23305;DHT22;11821;51.456;8.844;2022-10-17T17:14:37;23.20;99.90
23305;DHT22;11821;51.456;8.844;2022-10-17T17:17:03;23.10;99.90
23305;DHT22;11821;51.456;8.844;2022-10-17T17:19:30;23.00;99.90
23305;DHT22;11821;51.456;8.844;2022-10-17T17:21:56;23.00;99.90
23305;DHT22;11821;51.456;8.844;2022-10-17T17:24:22;22.90;99.90
23305;DHT22;11821;51.456;8.844;2022-10-17T17:26:51;22.90;99.90
23305;DHT22;11821;51.456;8.844;2022-10-17T17:29:17;22.90;99.90
23305;DHT22;11821;51.456;8.844;2022-10-17T17:31:43;22.80;99.90
23305;DHT22;11821;51.456;8.844;2022-10-17T17:34:10;22.80;99.90
23305;DHT22;11821;51.456;8.844;2022-10-17T17:36:37;22.70;99.90
23305;DHT22;11821;51.456;8.844;2022-10-17T17:39:06;22.70;99.90
23305;DHT22;11821;51.456;8.844;2022-10-17T17:41:33;22.60;99.90
23305;DHT22;11821;51.456;8.844;2022-10-17T17:44:00;22.60;99.90
23305;DHT22;11821;51.456;8.844;2022-10-17T17:46:27;22.50;99.90
23305;DHT22;11821;51.456;8.844;2022-10-17T17:48:54;22.50;99.90
23305;DHT22;11821;51.456;8.844;2022-10-17T17:51:23;22.50;99.90
23305;DHT22;11821;51.456;8.844;2022-10-17T17:53:50;22.40;99.90
23305;DHT22;11821;51.456;8.844;2022-10-17T17:56:22;22.40;99.90
23305;DHT22;11821;51.456;8.844;2022-10-17T17:59:00;22.40;99.90
23305;DHT22;11821;51.456;8.844;2022-10-17T18:01:28;22.20;99.90